Time;durP1;ratioP1;P1;durP2;ratioP2;P2;SDS_P1;SDS_P2;PMS_P1;PMS_P2;Temp;Humidity;BMP_temperature;BMP_pressure;BME280_temperature;BME280_humidity;BME280_pressure;Samples;Min_cycle;Max_cycle;Signal;HPM_P1;HPM_P2
2024/04/13 00:00:45;;;;;;;;;;;16.30;99.90;;;16.66;69.86;101569.63;5492048;26;19927;-85
2024/04/13 00:03:14;;;;;;;;;;;16.30;99.90;;;16.66;70.06;101566.94;5490465;26;19928;-85
2024/04/13 00:05:41;;;;;;;;;;;16.20;99.90;;;16.63;70.17;101573.59;5490980;26;20022;-85
2024/04/13 00:08:10;;;;;;;;;;;16.30;99.90;;;16.64;69.70;101566.31;5492930;26;20386;-85
2024/04/13 00:10:36;;;;;;;;;;;16.30;99.90;;;16.64;69.82;101564.47;5490437;26;19996;-85
2024/04/13 00:13:09;;;;;;;;;;;16.30;99.90;;;16.67;69.93;101564.00;5492951;26;19928;-85
2024/04/13 00:15:35;;;;;;;;;;;16.30;99.90;;;16.62;69.61;101563.88;5492949;26;20018;-85
2024/04/13 00:18:06;;;;;;;;;;;16.20;99.90;;;16.57;69.95;101560.19;5498223;26;19939;-85
2024/04/13 00:20:32;;;;;;;;;;;16.20;99.90;;;16.55;70.12;101549.66;5460512;26;19935;-85
2024/04/13 00:23:01;;;;;;;;;;;16.20;99.90;;;16.58;70.28;101549.19;5492905;26;19967;-85
2024/04/13 00:25:29;;;;;;;;;;;16.20;99.90;;;16.55;70.30;101546.16;5492453;26;20060;-85
2024/04/13 00:27:59;;;;;;;;;;;16.20;99.90;;;16.55;70.51;101548.84;5493336;26;19939;-85
2024/04/13 00:30:28;;;;;;;;;;;16.20;99.90;;;16.56;70.14;101543.22;5467510;26;19954;-85
2024/04/13 00:32:57;;;;;;;;;;;16.20;99.90;;;16.56;70.38;101542.41;5498035;26;20402;-85
2024/04/13 00:35:24;;;;;;;;;;;16.00;99.90;;;16.52;70.06;101538.50;5529362;25;19938;-85
2024/04/13 00:37:53;;;;;;;;;;;16.10;99.90;;;16.52;70.35;101544.72;5527257;26;19934;-85
2024/04/13 00:40:19;;;;;;;;;;;16.10;99.90;;;16.52;70.02;101541.19;5526939;26;19928;-85
2024/04/13 00:42:48;;;;;;;;;;;16.10;99.90;;;16.51;70.18;101545.78;5528119;26;19934;-85
2024/04/13 00:45:15;;;;;;;;;;;16.10;99.90;;;16.50;70.21;101543.31;5528619;26;19927;-85
2024/04/13 00:47:46;;;;;;;;;;;16.10;99.90;;;16.48;69.88;101548.91;5527852;26;19934;-85
2024/04/13 00:50:13;;;;;;;;;;;16.00;99.90;;;16.47;69.97;101545.38;5528231;26;19935;-85
2024/04/13 00:52:44;;;;;;;;;;;16.00;99.90;;;16.46;70.01;101556.38;5530824;26;20020;-85
2024/04/13 00:55:11;;;;;;;;;;;16.00;99.90;;;16.46;69.92;101546.44;5523952;26;19939;-85
2024/04/13 00:57:40;;;;;;;;;;;16.00;99.90;;;16.45;70.15;101552.06;5528575;26;19927;-85
2024/04/13 01:00:08;;;;;;;;;;;16.00;99.90;;;16.41;70.29;101546.28;5497295;26;20271;-85
2024/04/13 01:02:42;;;;;;;;;;;16.00;99.90;;;16.35;70.46;101549.06;5528478;26;19972;-85
2024/04/13 01:05:13;;;;;;;;;;;16.00;99.90;;;16.36;70.48;101542.63;5496014;26;19949;-85
2024/04/13 01:07:46;;;;;;;;;;;16.00;99.90;;;16.34;70.23;101540.13;5529537;26;20390;-85
2024/04/13 01:10:14;;;;;;;;;;;16.00;99.90;;;16.33;70.12;101530.41;5501033;26;19930;-85
2024/04/13 01:12:43;;;;;;;;;;;15.90;99.90;;;16.31;70.01;101534.38;5492488;26;19951;-85
2024/04/13 01:15:09;;;;;;;;;;;15.90;99.90;;;16.30;70.40;101530.88;5497779;26;19960;-85
2024/04/13 01:17:38;;;;;;;;;;;15.90;99.90;;;16.29;70.07;101534.59;5497564;26;19928;-85
2024/04/13 01:20:08;;;;;;;;;;;15.90;99.90;;;16.29;70.42;101523.81;5498074;26;19928;-85
2024/04/13 01:22:42;;;;;;;;;;;15.90;99.90;;;16.29;70.41;101536.47;5497298;26;19928;-85
2024/04/13 01:25:13;;;;;;;;;;;15.90;99.90;;;16.28;70.45;101535.66;5498070;26;19996;-85
2024/04/13 01:27:42;;;;;;;;;;;15.90;99.90;;;16.27;70.42;101536.69;5498911;26;19927;-85
2024/04/13 01:30:11;;;;;;;;;;;15.90;99.90;;;16.26;70.25;101539.63;5532195;26;19927;-85
2024/04/13 01:32:41;;;;;;;;;;;15.90;99.90;;;16.28;70.27;101538.34;5534998;25;19931;-85
2024/04/13 01:35:08;;;;;;;;;;;15.80;99.90;;;16.26;69.98;101535.06;5502230;26;19943;-85
2024/04/13 01:37:37;;;;;;;;;;;15.80;99.90;;;16.25;70.01;101521.78;5531736;26;19927;-85
2024/04/13 01:40:06;;;;;;;;;;;15.80;99.90;;;16.24;70.21;101512.91;5533058;26;19928;-85
2024/04/13 01:42:39;;;;;;;;;;;15.80;99.90;;;16.24;70.50;101523.66;5532058;26;20426;-85
2024/04/13 01:45:06;;;;;;;;;;;15.80;99.90;;;16.22;70.40;101526.59;5532509;26;19986;-85
2024/04/13 01:47:35;;;;;;;;;;;15.80;99.90;;;16.21;70.27;101522.25;5489844;26;19934;-85
2024/04/13 01:50:02;;;;;;;;;;;15.80;99.90;;;16.21;70.24;101521.44;5495339;26;19959;-85
2024/04/13 01:52:31;;;;;;;;;;;15.80;99.90;;;16.20;70.21;101522.47;5496683;26;19927;-85
2024/04/13 01:54:59;;;;;;;;;;;15.80;99.90;;;16.20;70.29;101520.63;5495604;26;19939;-85
2024/04/13 01:57:28;;;;;;;;;;;15.80;99.90;;;16.18;70.48;101511.94;5497230;26;19927;-85
2024/04/13 01:59:57;;;;;;;;;;;15.70;99.90;;;16.14;70.48;101515.28;5495632;26;19934;-85
2024/04/13 02:02:26;;;;;;;;;;;15.70;99.90;;;16.17;70.69;101512.16;5495968;26;19928;-85
2024/04/13 02:04:53;;;;;;;;;;;15.70;99.90;;;16.14;71.06;101515.28;5498087;26;20084;-85
2024/04/13 02:07:24;;;;;;;;;;;15.80;99.90;;;16.15;70.49;101511.53;5496632;26;19928;-85
2024/04/13 02:09:50;;;;;;;;;;;15.70;99.90;;;16.14;70.44;101517.97;5466916;26;19949;-85
2024/04/13 02:12:20;;;;;;;;;;;15.70;99.90;;;16.13;70.88;101502.88;5404038;26;19960;-85
2024/04/13 02:14:46;;;;;;;;;;;15.70;99.90;;;16.11;71.28;101507.69;5464722;26;19950;-85
2024/04/13 02:17:17;;;;;;;;;;;15.70;99.90;;;16.12;70.99;101504.75;5492631;26;19935;-85
2024/04/13 02:19:44;;;;;;;;;;;15.70;99.90;;;16.14;71.17;101518.78;5435152;26;19935;-85
2024/04/13 02:22:13;;;;;;;;;;;15.70;99.90;;;16.13;71.04;101509.09;5494066;26;19928;-84
2024/04/13 02:24:39;;;;;;;;;;;15.70;99.90;;;16.11;71.25;101508.50;5493100;26;19928;-85
2024/04/13 02:27:08;;;;;;;;;;;15.60;99.90;;;16.10;71.00;101508.69;5522519;26;19927;-85
2024/04/13 02:29:35;;;;;;;;;;;15.60;99.90;;;16.10;70.81;101506.81;5498780;26;19934;-85
2024/04/13 02:32:04;;;;;;;;;;;15.60;99.90;;;16.09;71.29;101501.69;5498060;26;19935;-85
2024/04/13 02:34:34;;;;;;;;;;;15.60;99.90;;;16.08;71.09;101497.34;5531113;26;19927;-85
2024/04/13 02:37:03;;;;;;;;;;;15.60;99.90;;;16.06;71.39;101500.28;5529175;26;19928;-85
2024/04/13 02:39:32;;;;;;;;;;;15.60;99.90;;;16.05;71.32;101495.09;5510739;26;19935;-85
2024/04/13 02:42:01;;;;;;;;;;;15.60;99.90;;;16.06;71.06;101492.19;5492095;26;19964;-85
2024/04/13 02:44:28;;;;;;;;;;;15.60;99.90;;;16.04;71.25;101486.19;5492391;26;19996;-85
2024/04/13 02:46:57;;;;;;;;;;;15.60;99.90;;;16.02;71.43;101496.38;5491542;26;19936;-85
2024/04/13 02:49:23;;;;;;;;;;;15.60;99.90;;;16.01;71.76;101478.59;5472600;26;19931;-85
2024/04/13 02:51:55;;;;;;;;;;;15.60;99.90;;;15.97;71.91;101480.06;5529884;25;19997;-85
2024/04/13 02:54:22;;;;;;;;;;;15.60;99.90;;;15.97;71.89;101474.69;5468398;26;19927;-85
2024/04/13 02:56:51;;;;;;;;;;;15.50;99.90;;;15.97;71.53;101477.38;5530260;25;19931;-85
2024/04/13 02:59:17;;;;;;;;;;;15.50;99.90;;;15.95;71.63;101474.06;5522698;26;19927;-85
2024/04/13 03:01:46;;;;;;;;;;;15.50;99.90;;;15.95;72.13;101474.88;5497772;26;20370;-85
2024/04/13 03:04:13;;;;;;;;;;;15.50;99.90;;;15.94;71.55;101470.56;5497643;26;20398;-85
2024/04/13 03:06:42;;;;;;;;;;;15.50;99.90;;;15.94;71.48;101473.25;5528326;26;19928;-85
2024/04/13 03:09:12;;;;;;;;;;;15.50;99.90;;;15.95;71.99;101482.13;5498983;26;19928;-85
2024/04/13 03:11:42;;;;;;;;;;;15.50;99.90;;;15.95;71.62;101479.44;5528787;26;20375;-85
2024/04/13 03:14:08;;;;;;;;;;;15.50;99.90;;;15.91;71.67;101487.16;5528366;26;19927;-85
2024/04/13 03:16:37;;;;;;;;;;;15.50;99.90;;;15.90;72.05;101487.38;5522948;26;19936;-85
2024/04/13 03:19:05;;;;;;;;;;;15.40;99.90;;;15.89;71.91;101486.53;5527208;26;19976;-85
2024/04/13 03:21:35;;;;;;;;;;;15.40;99.90;;;15.87;71.87;101479.75;5528510;26;19931;-85
2024/04/13 03:24:01;;;;;;;;;;;15.40;99.90;;;15.86;71.88;101476.25;5528457;26;20025;-85
2024/04/13 03:26:33;;;;;;;;;;;15.40;99.90;;;15.84;71.91;101490.94;5497464;26;19956;-85
2024/04/13 03:29:00;;;;;;;;;;;15.40;99.90;;;15.80;71.70;101485.19;5528377;26;19927;-85
2024/04/13 03:31:29;;;;;;;;;;;15.30;99.90;;;15.79;71.78;101472.78;5529625;25;20386;-85
2024/04/13 03:33:56;;;;;;;;;;;15.30;99.90;;;15.78;71.66;101479.22;5529913;25;19931;-85
2024/04/13 03:36:26;;;;;;;;;;;15.30;99.90;;;15.77;71.80;101484.81;5557863;25;19995;-85
2024/04/13 03:38:57;;;;;;;;;;;15.30;99.90;;;15.75;71.84;101482.31;5530202;25;19927;-85
2024/04/13 03:41:26;;;;;;;;;;;15.30;99.90;;;15.72;71.58;101474.72;5527431;26;20278;-85
2024/04/13 03:43:58;;;;;;;;;;;15.20;99.90;;;15.70;72.07;101476.78;5506999;26;20383;-85
2024/04/13 03:46:25;;;;;;;;;;;15.20;99.90;;;15.68;72.29;101468.94;5493521;26;19955;-85
2024/04/13 03:48:54;;;;;;;;;;;15.20;99.90;;;15.66;72.11;101479.13;5492768;26;19973;-85
2024/04/13 03:51:20;;;;;;;;;;;15.10;99.90;;;15.64;72.23;101469.59;5492920;26;19935;-85
2024/04/13 03:53:49;;;;;;;;;;;15.20;99.90;;;15.60;72.32;101476.44;5471629;26;19931;-85
2024/04/13 03:56:16;;;;;;;;;;;15.10;99.90;;;15.58;72.11;101478.53;5528962;26;19927;-85
2024/04/13 03:58:47;;;;;;;;;;;15.10;99.90;;;15.55;72.48;101471.72;5528126;26;19977;-85
2024/04/13 04:01:16;;;;;;;;;;;15.10;99.90;;;15.57;72.32;101469.63;5529237;26;20005;-85
2024/04/13 04:03:45;;;;;;;;;;;15.10;99.90;;;15.56;72.45;101481.41;5494566;25;19954;-85
2024/04/13 04:06:13;;;;;;;;;;;15.10;99.90;;;15.53;72.85;101484.56;5460491;26;21669;-85
2024/04/13 04:08:43;;;;;;;;;;;15.10;99.90;;;15.54;72.54;101480.81;5492270;26;20275;-85
2024/04/13 04:11:09;;;;;;;;;;;15.10;99.90;;;15.51;72.72;101481.25;5491177;26;19956;-85
2024/04/13 04:13:38;;;;;;;;;;;15.10;99.90;;;15.50;72.77;101471.53;5477764;26;19934;-85
2024/04/13 04:16:05;;;;;;;;;;;15.10;99.90;;;15.52;72.47;101474.00;5498987;26;19935;-85
2024/04/13 04:18:37;;;;;;;;;;;15.10;99.90;;;15.50;72.75;101471.53;5528177;26;19927;-85
2024/04/13 04:21:04;;;;;;;;;;;15.00;99.90;;;15.50;72.68;101476.91;5466052;26;19939;-85
2024/04/13 04:23:33;;;;;;;;;;;15.00;99.90;;;15.46;72.79;101481.09;5530294;25;19927;-85
2024/04/13 04:25:59;;;;;;;;;;;15.00;99.90;;;15.50;72.77;101479.59;5530369;25;19934;-85
2024/04/13 04:28:28;;;;;;;;;;;15.00;99.90;;;15.50;72.59;101478.78;5533321;25;19972;-85
2024/04/13 04:31:08;;;;;;;;;;;15.00;99.90;;;15.51;72.45;101480.44;5499078;26;19934;-85
2024/04/13 04:33:40;;;;;;;;;;;15.10;99.90;;;15.51;72.69;101486.63;5526952;26;20046;-85
2024/04/13 04:36:07;;;;;;;;;;;15.10;99.90;;;15.52;72.53;101484.75;5529551;26;19927;-85
2024/04/13 04:38:36;;;;;;;;;;;15.00;99.90;;;15.50;72.53;101478.78;5529146;26;19995;-85
2024/04/13 04:41:03;;;;;;;;;;;15.00;99.90;;;15.48;72.77;101492.47;5463003;26;19935;-85
2024/04/13 04:43:32;;;;;;;;;;;15.00;99.90;;;15.47;72.90;101490.81;5492215;26;19939;-85
2024/04/13 04:45:58;;;;;;;;;;;15.00;99.90;;;15.45;72.74;101488.31;5492748;26;19927;-85
2024/04/13 04:48:27;;;;;;;;;;;15.00;99.90;;;15.45;72.70;101493.72;5494620;26;19928;-85
2024/04/13 04:51:02;;;;;;;;;;;15.00;99.90;;;15.44;72.92;101485.88;5506642;26;19927;-85
2024/04/13 04:53:31;;;;;;;;;;;15.00;99.90;;;15.46;72.82;101494.53;5534975;25;20330;-85
2024/04/13 04:55:58;;;;;;;;;;;15.00;99.90;;;15.45;72.69;101491.00;5532771;26;19927;-85
2024/04/13 04:58:27;;;;;;;;;;;15.00;99.90;;;15.45;72.64;101485.63;5535163;25;19996;-85
2024/04/13 05:00:53;;;;;;;;;;;15.00;99.90;;;15.47;73.00;101490.81;5533376;26;19955;-85
2024/04/13 05:03:22;;;;;;;;;;;15.00;99.90;;;15.48;73.05;101484.41;5533267;26;19927;-85
2024/04/13 05:05:49;;;;;;;;;;;15.00;99.90;;;15.48;73.27;101487.09;5518727;26;19936;-85
2024/04/13 05:08:21;;;;;;;;;;;15.00;99.90;;;15.50;73.11;101484.16;5498720;26;20356;-85
2024/04/13 05:10:48;;;;;;;;;;;15.10;99.90;;;15.50;72.94;101484.16;5517832;26;20275;-85
2024/04/13 05:13:17;;;;;;;;;;;15.10;99.90;;;15.52;73.27;101484.75;5532924;26;19939;-85
2024/04/13 05:15:43;;;;;;;;;;;15.10;99.90;;;15.51;72.95;101485.81;5531682;26;19938;-88
2024/04/13 05:18:12;;;;;;;;;;;15.10;99.90;;;15.49;73.22;101483.34;5531614;26;19934;-87
2024/04/13 05:20:39;;;;;;;;;;;15.10;99.90;;;15.48;73.39;101487.09;5533462;26;19939;-86
2024/04/13 05:23:08;;;;;;;;;;;15.10;99.90;;;15.53;73.55;101489.13;5531651;26;19927;-86
2024/04/13 05:25:37;;;;;;;;;;;15.10;99.90;;;15.55;73.38;101489.72;5462513;26;19935;-87
2024/04/13 05:28:07;;;;;;;;;;;15.20;99.90;;;15.54;73.58;101491.56;5493119;26;19932;-86
2024/04/13 05:30:35;;;;;;;;;;;15.20;99.90;;;15.58;73.29;101491.97;5462632;26;20171;-87
2024/04/13 05:33:04;;;;;;;;;;;15.20;99.90;;;15.60;73.28;101492.56;5455764;26;20311;-86
2024/04/13 05:35:31;;;;;;;;;;;15.20;99.90;;;15.63;73.20;101498.38;5455486;26;19928;-86
2024/04/13 05:38:00;;;;;;;;;;;15.30;99.90;;;15.66;73.26;101499.78;5455563;26;20038;-86
2024/04/13 05:40:27;;;;;;;;;;;15.30;99.90;;;15.67;73.50;101501.44;5456561;26;19932;-86
2024/04/13 05:42:59;;;;;;;;;;;15.40;99.90;;;15.71;73.18;101494.56;5426543;26;19941;-86
2024/04/13 05:45:25;;;;;;;;;;;15.40;99.90;;;15.76;72.95;101500.09;5425915;26;19929;-87
2024/04/13 05:47:54;;;;;;;;;;;15.40;99.90;;;15.79;72.93;101505.06;5431016;26;19957;-87
2024/04/13 05:50:23;;;;;;;;;;;15.50;99.90;;;15.80;73.02;101508.56;5491998;26;19928;-87
2024/04/13 05:52:52;;;;;;;;;;;15.50;99.90;;;15.78;73.09;101500.72;5492153;26;20407;-87
2024/04/13 05:55:19;;;;;;;;;;;15.50;99.90;;;15.78;73.06;101507.97;5456628;26;19928;-87
2024/04/13 05:57:48;;;;;;;;;;;15.50;99.90;;;15.79;73.12;101512.31;5455335;26;19940;-88
2024/04/13 06:00:17;;;;;;;;;;;15.60;99.90;;;15.78;73.67;101498.03;5425452;26;20273;-87
2024/04/13 06:02:47;;;;;;;;;;;15.60;99.90;;;15.82;73.33;101499.25;5430618;26;19928;-86
2024/04/13 06:05:13;;;;;;;;;;;15.60;99.90;;;15.86;73.22;101491.53;5501708;26;19960;-87
2024/04/13 06:07:43;;;;;;;;;;;15.60;99.90;;;15.87;72.83;101493.22;5532379;25;19935;-87
2024/04/13 06:10:09;;;;;;;;;;;15.70;99.90;;;15.91;72.55;101497.09;5528217;26;19935;-87
2024/04/13 06:12:39;;;;;;;;;;;15.70;99.90;;;15.92;73.17;101496.88;5530518;26;20274;-86
2024/04/13 06:15:06;;;;;;;;;;;15.70;99.90;;;15.88;73.10;101492.97;5498353;26;19932;-85
2024/04/13 06:17:37;;;;;;;;;;;15.80;99.90;;;15.81;73.37;101492.22;5459986;26;19936;-85
2024/04/13 06:20:04;;;;;;;;;;;15.80;99.90;;;15.86;72.94;101495.06;5461658;26;19935;-85
2024/04/13 06:22:33;;;;;;;;;;;15.80;99.90;;;15.90;73.37;101493.56;5463373;26;19940;-85
2024/04/13 06:25:00;;;;;;;;;;;15.80;99.90;;;15.94;73.46;101492.09;5434117;26;19943;-85
2024/04/13 06:27:29;;;;;;;;;;;15.90;99.90;;;15.92;73.19;101488.81;5494078;26;19928;-85
2024/04/13 06:29:56;;;;;;;;;;;15.90;99.90;;;15.95;72.76;101482.13;5490597;26;19940;-85
2024/04/13 06:32:25;;;;;;;;;;;16.00;99.90;;;15.96;73.17;101484.63;5430184;26;19928;-85
2024/04/13 06:34:54;;;;;;;;;;;16.00;99.90;;;16.04;73.77;101486.19;5491793;26;19932;-85
2024/04/13 06:37:24;;;;;;;;;;;16.10;99.90;;;16.12;73.04;101477.84;5491280;26;19928;-86
2024/04/13 06:39:51;;;;;;;;;;;16.20;99.90;;;16.16;72.63;101476.34;5490645;26;19927;-81
2024/04/13 06:42:21;;;;;;;;;;;16.20;99.90;;;16.18;72.58;101479.63;5461178;26;20468;-81
2024/04/13 06:44:47;;;;;;;;;;;16.30;99.90;;;16.22;72.53;101475.44;5494257;26;19928;-81
2024/04/13 06:47:16;;;;;;;;;;;16.30;99.90;;;16.29;73.00;101486.13;5529404;26;19931;-81
2024/04/13 06:49:46;;;;;;;;;;;16.40;99.90;;;16.32;72.68;101474.09;5501366;26;20363;-83
2024/04/13 06:52:17;;;;;;;;;;;16.40;99.90;;;16.36;72.49;101468.06;5533575;26;19973;-82
2024/04/13 06:54:43;;;;;;;;;;;16.50;99.90;;;16.44;72.73;101475.81;5536252;26;19934;-83
2024/04/13 06:57:12;;;;;;;;;;;16.50;99.90;;;16.46;72.00;101479.13;5535566;25;19931;-82
2024/04/13 06:59:41;;;;;;;;;;;16.60;99.90;;;16.54;72.24;101463.69;5534062;26;19953;-79
2024/04/13 07:02:08;;;;;;;;;;;16.70;99.90;;;16.52;71.85;101465.78;5531355;25;19932;-86
2024/04/13 07:04:37;;;;;;;;;;;16.70;99.90;;;16.56;72.64;101462.44;5527009;26;19928;-86
2024/04/13 07:07:04;;;;;;;;;;;16.70;99.90;;;16.59;72.36;101458.44;5527893;26;19935;-85
2024/04/13 07:09:35;;;;;;;;;;;16.80;99.90;;;16.64;71.68;101456.75;5496619;26;19928;-84
2024/04/13 07:12:02;;;;;;;;;;;16.80;99.90;;;16.66;71.80;101456.50;5527271;26;19931;-86
2024/04/13 07:14:31;;;;;;;;;;;16.80;99.90;;;16.66;71.58;101451.94;5531486;25;19927;-85
2024/04/13 07:17:01;;;;;;;;;;;16.90;99.90;;;16.72;71.87;101455.63;5531402;25;20394;-79
2024/04/13 07:19:27;;;;;;;;;;;16.90;99.90;;;16.81;71.96;101459.63;5528498;26;20256;-81
2024/04/13 07:21:56;;;;;;;;;;;17.00;99.90;;;16.89;71.33;101453.13;5528577;26;19930;-81
2024/04/13 07:24:22;;;;;;;;;;;17.00;99.90;;;16.93;71.81;101451.59;5530010;26;19935;-81
2024/04/13 07:26:54;;;;;;;;;;;17.10;99.90;;;16.92;70.97;101450.78;5532931;26;19976;-81
2024/04/13 07:29:20;;;;;;;;;;;17.10;99.90;;;16.99;71.11;101456.09;5500907;26;20378;-80
2024/04/13 07:31:49;;;;;;;;;;;17.20;99.90;;;17.06;71.03;101453.28;5529245;25;19960;-81
2024/04/13 07:34:15;;;;;;;;;;;17.30;99.90;;;17.15;72.01;101447.34;5529053;25;20271;-85
2024/04/13 07:36:45;;;;;;;;;;;17.40;99.90;;;17.13;69.97;101435.97;5527257;26;19959;-87
2024/04/13 07:39:12;;;;;;;;;;;17.40;99.90;;;17.19;70.83;101440.44;5526995;26;19999;-80
2024/04/13 07:41:41;;;;;;;;;;;17.50;99.90;;;17.28;71.20;101440.94;5528616;26;20262;-81
2024/04/13 07:44:10;;;;;;;;;;;17.50;99.90;;;17.34;70.21;101442.69;5529823;26;19927;-81
2024/04/13 07:46:39;;;;;;;;;;;17.60;99.90;;;17.37;70.11;101438.69;5520266;26;19934;-80
2024/04/13 07:49:05;;;;;;;;;;;17.60;99.90;;;17.39;70.49;101444.69;5522345;25;19999;-82
2024/04/13 07:51:34;;;;;;;;;;;17.70;99.90;;;17.41;69.74;101434.47;5507633;26;19928;-83
2024/04/13 07:54:01;;;;;;;;;;;17.70;99.90;;;17.54;70.10;101438.84;5521310;26;19939;-83
2024/04/13 07:56:29;;;;;;;;;;;17.80;99.90;;;17.67;69.98;101436.75;5524994;26;19935;-84
2024/04/13 07:58:55;;;;;;;;;;;17.90;99.90;;;17.72;70.42;101428.75;5495803;25;19928;-83
2024/04/13 08:01:27;;;;;;;;;;;18.00;99.90;;;17.76;68.35;101429.13;5490892;26;19996;-83
2024/04/13 08:03:53;;;;;;;;;;;18.00;99.90;;;17.82;69.27;101435.47;5516660;26;19955;-82
2024/04/13 08:06:22;;;;;;;;;;;18.10;99.90;;;17.87;69.10;101431.00;5517672;26;19938;-83
2024/04/13 08:08:49;;;;;;;;;;;18.10;99.90;;;17.91;68.92;101424.09;5512992;26;19928;-84
2024/04/13 08:11:18;;;;;;;;;;;18.20;99.90;;;17.97;67.90;101431.25;5491019;26;19952;-81
2024/04/13 08:13:45;;;;;;;;;;;18.20;99.90;;;17.99;68.43;101429.09;5492008;26;19928;-81
2024/04/13 08:16:13;;;;;;;;;;;18.30;99.90;;;18.06;68.80;101433.59;5525608;26;19928;-81
2024/04/13 08:18:42;;;;;;;;;;;18.40;99.90;;;18.10;68.37;101423.94;5507266;26;19927;-81
2024/04/13 08:21:11;;;;;;;;;;;18.40;99.90;;;18.19;68.56;101422.50;5497186;26;19927;-81
2024/04/13 08:23:37;;;;;;;;;;;18.50;99.90;;;18.31;68.75;101426.00;5528683;26;20406;-81
2024/04/13 08:26:07;;;;;;;;;;;18.60;99.90;;;18.44;68.37;101427.59;5529824;26;19927;-81
2024/04/13 08:28:34;;;;;;;;;;;18.80;99.90;;;18.45;66.17;101416.56;5531194;25;19929;-81
2024/04/13 08:31:06;;;;;;;;;;;18.80;99.90;;;18.44;66.92;101422.19;5441256;26;20370;-82
2024/04/13 08:33:32;;;;;;;;;;;18.80;99.90;;;18.42;66.18;101425.16;5530692;26;19928;-82
2024/04/13 08:36:08;;;;;;;;;;;18.70;99.90;;;18.41;66.37;101423.50;5522291;26;19928;-83
2024/04/13 08:38:35;;;;;;;;;;;18.70;99.90;;;18.49;67.83;101416.88;5532764;26;20267;-83
2024/04/13 08:41:10;;;;;;;;;;;18.80;99.90;;;18.50;66.00;101419.38;5530310;26;19939;-83
2024/04/13 08:43:37;;;;;;;;;;;18.80;99.90;;;18.48;65.63;101405.25;5497222;26;19931;-82
2024/04/13 08:46:07;;;;;;;;;;;18.80;99.90;;;18.45;67.01;101416.56;5481882;26;20268;-83
2024/04/13 08:48:36;;;;;;;;;;;18.80;99.90;;;18.51;66.71;101412.91;5527956;26;19980;-86
2024/04/13 08:51:09;;;;;;;;;;;18.80;99.90;;;18.53;66.02;101405.38;5507360;26;19928;-84
2024/04/13 08:53:35;;;;;;;;;;;18.90;99.90;;;18.60;66.37;101405.25;5502241;26;19964;-83
2024/04/13 08:56:06;;;;;;;;;;;18.90;99.90;;;18.62;66.79;101396.88;5513031;25;19935;-83
2024/04/13 08:58:34;;;;;;;;;;;19.00;99.90;;;18.70;66.41;101399.22;5533553;26;19927;-83
2024/04/13 09:01:03;;;;;;;;;;;19.00;99.90;;;18.73;66.13;101396.03;5503694;26;19996;-83
2024/04/13 09:03:30;;;;;;;;;;;19.10;99.90;;;18.73;65.27;101396.03;5494500;26;19935;-83
2024/04/13 09:05:59;;;;;;;;;;;19.10;99.90;;;18.70;65.17;101396.53;5496323;26;20256;-83
2024/04/13 09:08:31;;;;;;;;;;;19.00;99.90;;;18.76;67.06;101395.56;5509325;26;19928;-83
2024/04/13 09:11:03;;;;;;;;;;;19.00;99.90;;;18.77;66.89;101398.00;5499295;26;19927;-83
2024/04/13 09:13:31;;;;;;;;;;;19.10;99.90;;;18.81;65.74;101392.13;5498529;26;20427;-83
2024/04/13 09:16:00;;;;;;;;;;;19.10;99.90;;;18.82;65.69;101388.34;5508443;26;19936;-83
2024/04/13 09:18:26;;;;;;;;;;;19.10;99.90;;;18.80;65.44;101390.50;5496616;26;19960;-83
2024/04/13 09:20:56;;;;;;;;;;;19.10;99.90;;;18.89;66.11;101376.34;5466134;26;19938;-83
2024/04/13 09:23:25;;;;;;;;;;;19.20;99.90;;;18.94;65.58;101379.13;5509532;26;19995;-83
2024/04/13 09:26:05;;;;;;;;;;;19.30;99.90;;;19.00;65.26;101383.53;5515876;26;19959;-83
2024/04/13 09:28:39;;;;;;;;;;;19.30;99.90;;;19.10;65.32;101376.66;5494911;26;20059;-83
2024/04/13 09:31:07;;;;;;;;;;;19.50;99.90;;;19.12;66.04;101375.34;5515162;26;19934;-83
2024/04/13 09:33:34;;;;;;;;;;;19.50;99.90;;;19.15;64.89;101374.06;5529435;25;19934;-83
2024/04/13 09:36:04;;;;;;;;;;;19.50;99.90;;;19.17;65.31;101380.00;5534044;25;19931;-83
2024/04/13 09:38:30;;;;;;;;;;;19.50;99.90;;;19.20;65.79;101366.81;5523001;26;19935;-83
2024/04/13 09:40:59;;;;;;;;;;;19.60;99.90;;;19.20;64.34;101371.44;5500571;26;19928;-83
2024/04/13 09:43:28;;;;;;;;;;;19.60;99.90;;;19.24;65.38;101370.69;5524291;26;19927;-83
2024/04/13 09:46:01;;;;;;;;;;;19.60;99.90;;;19.30;65.26;101368.88;5502829;26;20272;-83
2024/04/13 09:48:28;;;;;;;;;;;19.70;99.90;;;19.33;65.42;101357.56;5508241;26;19933;-83
2024/04/13 09:50:57;;;;;;;;;;;19.70;99.90;;;19.39;66.21;101353.88;5528929;26;19938;-83
2024/04/13 09:53:24;;;;;;;;;;;19.70;99.90;;;19.44;66.13;101359.34;5478584;26;19928;-83
2024/04/13 09:55:53;;;;;;;;;;;19.80;99.90;;;19.51;65.33;101359.16;5522053;26;19928;-83
2024/04/13 09:58:20;;;;;;;;;;;19.80;99.90;;;19.45;65.09;101350.16;5497470;26;19927;-83
2024/04/13 10:00:52;;;;;;;;;;;19.80;99.90;;;19.51;65.47;101346.44;5499063;26;19935;-83
2024/04/13 10:03:18;;;;;;;;;;;19.90;99.90;;;19.58;66.39;101342.78;5512433;26;19929;-83
2024/04/13 10:05:50;;;;;;;;;;;20.00;99.90;;;19.64;65.82;101339.09;5534878;26;19927;-83
2024/04/13 10:08:16;;;;;;;;;;;20.00;99.90;;;19.69;64.84;101334.56;5529617;25;19959;-83
2024/04/13 10:10:47;;;;;;;;;;;20.10;99.90;;;19.70;64.72;101336.19;5499820;26;19928;-83
2024/04/13 10:13:22;;;;;;;;;;;20.10;99.90;;;19.75;64.39;101332.72;5466593;26;19928;-83
2024/04/13 10:15:54;;;;;;;;;;;20.10;99.90;;;19.78;64.16;101324.94;5499184;26;20395;-83
2024/04/13 10:18:20;;;;;;;;;;;20.20;99.90;;;19.84;64.02;101331.22;5500444;26;19927;-83
2024/04/13 10:20:49;;;;;;;;;;;20.20;99.90;;;19.88;64.32;101326.13;5510120;26;19931;-83
2024/04/13 10:23:16;;;;;;;;;;;20.20;99.90;;;19.93;64.33;101318.06;5511276;26;19992;-83
2024/04/13 10:25:45;;;;;;;;;;;20.30;99.90;;;20.03;64.89;101318.19;5520201;26;19980;-83
2024/04/13 10:28:20;;;;;;;;;;;20.40;99.90;;;20.09;63.71;101308.22;5467528;26;20371;-83
2024/04/13 10:30:50;;;;;;;;;;;20.40;99.90;;;20.08;62.01;101302.00;5511086;26;19927;-83
2024/04/13 10:33:20;;;;;;;;;;;20.40;99.90;;;20.10;62.66;101301.75;5532998;25;19952;-83
2024/04/13 10:35:57;;;;;;;;;;;20.50;99.90;;;20.13;63.69;101285.00;5534402;25;19935;-83
2024/04/13 10:38:24;;;;;;;;;;;20.50;99.90;;;20.21;63.76;101282.66;5534000;26;19928;-83
2024/04/13 10:40:53;;;;;;;;;;;20.50;99.90;;;20.22;61.76;101270.72;5466101;26;19927;-83
2024/04/13 10:43:21;;;;;;;;;;;20.60;99.90;;;20.19;62.06;101276.66;5534264;26;19934;-83
2024/04/13 10:45:56;;;;;;;;;;;20.60;99.90;;;20.26;62.50;101277.28;5509576;26;19940;-83
2024/04/13 10:48:26;;;;;;;;;;;20.60;99.90;;;20.31;62.22;101263.78;5497975;26;19927;-83
2024/04/13 10:50:57;;;;;;;;;;;20.70;99.90;;;20.40;62.81;101261.44;5512959;26;19934;-83
2024/04/13 10:53:26;;;;;;;;;;;20.80;99.90;;;20.48;62.55;101252.03;5504594;26;19935;-83
2024/04/13 10:55:56;;;;;;;;;;;20.90;99.90;;;20.55;63.50;101250.75;5505259;26;19932;-83
2024/04/13 10:58:27;;;;;;;;;;;20.90;99.90;;;20.65;61.95;101239.16;5512811;25;19927;-83
2024/04/13 11:00:57;;;;;;;;;;;21.00;99.90;;;20.65;62.68;101235.66;5503189;26;19928;-83
2024/04/13 11:03:28;;;;;;;;;;;21.00;99.90;;;20.67;61.57;101241.63;5519079;25;20271;-83
2024/04/13 11:05:58;;;;;;;;;;;21.10;99.90;;;20.71;61.91;101250.88;5506894;26;19928;-83
2024/04/13 11:08:25;;;;;;;;;;;21.10;99.90;;;20.80;63.51;101235.75;5524043;26;19935;-83
2024/04/13 11:10:59;;;;;;;;;;;21.20;99.90;;;20.82;60.55;101228.97;5533110;25;19935;-83
2024/04/13 11:13:25;;;;;;;;;;;21.20;99.90;;;20.84;60.05;101231.44;5531845;26;20353;-83
2024/04/13 11:15:54;;;;;;;;;;;21.30;99.90;;;20.88;58.76;101216.25;5509923;26;20375;-81